Time;durP1;ratioP1;P1;durP2;ratioP2;P2;SDS_P1;SDS_P2;PMS_P1;PMS_P2;Temp;Humidity;BMP_temperature;BMP_pressure;BME280_temperature;BME280_humidity;BME280_pressure;Samples;Min_cycle;Max_cycle;Signal;HPM_P1;HPM_P2
2021/11/19 00:00:33;;;;;;;49.40;28.00;;;;;;;2.64;82.80;98280.38;108078;1273;68658;-69
2021/11/19 00:03:14;;;;;;;46.50;27.20;;;;;;;2.64;82.74;98281.57;108008;1274;69668;-68
2021/11/19 00:05:45;;;;;;;30.20;16.00;;;;;;;2.66;82.67;98277.74;108114;1272;58925;-70
2021/11/19 00:08:18;;;;;;;42.50;22.80;;;;;;;2.67;82.83;98281.48;108117;1275;58962;-68
2021/11/19 00:10:48;;;;;;;59.30;33.10;;;;;;;2.67;82.69;98280.79;108096;1272;70799;-70
2021/11/19 00:13:18;;;;;;;53.70;30.40;;;;;;;2.67;82.05;98279.25;107997;1275;68646;-68
2021/11/19 00:15:47;;;;;;;50.10;30.60;;;;;;;2.65;82.25;98277.58;108007;1275;69513;-68
2021/11/19 00:18:18;;;;;;;64.10;33.80;;;;;;;2.66;82.30;98278.42;107897;1277;58996;-70
2021/11/19 00:20:47;;;;;;;39.40;21.20;;;;;;;2.67;82.22;98277.87;107996;1275;58887;-70
2021/11/19 00:23:18;;;;;;;60.70;32.90;;;;;;;2.68;82.17;98273.20;108031;1275;70950;-68
2021/11/19 00:25:48;;;;;;;66.70;35.80;;;;;;;2.67;81.82;98264.42;108011;1274;68676;-69
2021/11/19 00:28:19;;;;;;;66.50;34.70;;;;;;;2.66;81.84;98268.79;108004;1276;69427;-68
2021/11/19 00:30:49;;;;;;;49.00;27.50;;;;;;;2.63;82.19;98270.23;108041;1275;58967;-69
2021/11/19 00:33:20;;;;;;;48.00;28.80;;;;;;;2.64;82.20;98267.64;107872;1276;58954;-70
2021/11/19 00:35:50;;;;;;;39.80;21.50;;;;;;;2.64;82.00;98262.98;108116;1272;69768;-69
2021/11/19 00:38:21;;;;;;;62.80;35.40;;;;;;;2.66;82.04;98256.21;108091;1272;68630;-68
2021/11/19 00:40:58;;;;;;;45.30;24.90;;;;;;;2.67;82.24;98261.52;107916;1275;67781;-69
2021/11/19 00:43:28;;;;;;;42.40;24.80;;;;;;;2.67;82.16;98254.48;107937;1275;59005;-70
2021/11/19 00:45:58;;;;;;;27.40;14.20;;;;;;;2.68;82.23;98249.28;108118;1275;58918;-70
2021/11/19 00:48:32;;;;;;;46.30;27.10;;;;;;;2.70;82.77;98249.56;108024;1273;70833;-69
2021/11/19 00:51:14;;;;;;;38.40;19.20;;;;;;;2.70;82.02;98239.58;107996;1276;67867;-69
2021/11/19 00:53:48;;;;;;;58.50;31.10;;;;;;;2.71;82.13;98240.77;107996;1275;69526;-69
2021/11/19 00:56:26;;;;;;;33.70;18.30;;;;;;;2.71;82.16;98241.94;107957;1276;58957;-69
2021/11/19 00:58:57;;;;;;;32.70;18.30;;;;;;;2.72;81.94;98245.02;107969;1276;59025;-69
2021/11/19 01:01:31;;;;;;;40.40;21.80;;;;;;;2.74;82.00;98245.34;107876;1277;70043;-70
2021/11/19 01:04:03;;;;;;;37.30;21.90;;;;;;;2.75;82.17;98249.26;107967;1275;67929;-70
2021/11/19 01:06:34;;;;;;;39.90;20.70;;;;;;;2.75;82.29;98246.31;108019;1275;69973;-68
2021/11/19 01:09:09;;;;;;;38.10;21.20;;;;;;;2.75;82.22;98246.99;107986;1276;59801;-71
2021/11/19 01:11:39;;;;;;;52.70;30.70;;;;;;;2.76;82.03;98241.13;108028;1275;59719;-70
2021/11/19 01:14:15;;;;;;;44.50;24.50;;;;;;;2.75;81.58;98233.60;108005;1276;70772;-71
2021/11/19 01:16:53;;;;;;;49.00;26.80;;;;;;;2.72;81.45;98226.77;108010;1275;67913;-68
2021/11/19 01:19:35;;;;;;;39.70;21.80;;;;;;;2.69;81.81;98228.60;108007;1276;69325;-68
2021/11/19 01:22:10;;;;;;;30.20;17.90;;;;;;;2.69;82.18;98225.69;107974;1276;59792;-69
2021/11/19 01:24:40;;;;;;;34.90;19.70;;;;;;;2.70;82.25;98225.48;107991;1276;59657;-69
2021/11/19 01:27:13;;;;;;;41.00;22.60;;;;;;;2.71;82.36;98222.85;108147;1276;70694;-70
2021/11/19 01:29:42;;;;;;;48.50;27.00;;;;;;;2.71;82.15;98221.83;107963;1276;67917;-68
2021/11/19 01:32:17;;;;;;;54.50;29.70;;;;;;;2.72;81.84;98220.42;107949;1273;68505;-68
2021/11/19 01:35:06;;;;;;;56.40;30.40;;;;;;;2.70;81.63;98217.02;107904;1276;59784;-68
2021/11/19 01:37:54;;;;;;;42.40;23.40;;;;;;;2.65;81.92;98216.99;107843;1276;59754;-69
2021/11/19 01:40:58;;;;;;;41.10;21.70;;;;;;;2.63;82.29;98217.23;108011;1275;71610;-69
2021/11/19 01:43:31;;;;;;;32.10;18.90;;;;;;;2.64;82.74;98219.30;107994;1276;68438;-69
2021/11/19 01:46:07;;;;;;;33.10;19.20;;;;;;;2.66;82.43;98218.54;107837;1276;68463;-69
2021/11/19 01:48:39;;;;;;;51.00;27.70;;;;;;;2.68;82.32;98216.91;107948;1272;59738;-69
2021/11/19 01:51:19;;;;;;;41.30;24.50;;;;;;;2.68;81.86;98216.92;107934;1276;60093;-68
2021/11/19 01:54:03;;;;;;;35.40;18.80;;;;;;;2.67;82.08;98218.65;108061;1272;71587;-67
2021/11/19 01:56:46;;;;;;;38.70;19.80;;;;;;;2.69;82.12;98219.48;108036;1272;68600;-69
2021/11/19 01:59:25;;;;;;;30.90;18.00;;;;;;;2.70;82.40;98225.80;107912;1275;68970;-69
2021/11/19 02:02:22;;;;;;;29.90;16.70;;;;;;;2.72;82.52;98226.44;107830;1276;59775;-68
2021/11/19 02:04:57;;;;;;;38.60;21.50;;;;;;;2.73;82.25;98224.69;107972;1276;59843;-68
2021/11/19 02:07:44;;;;;;;35.80;19.60;;;;;;;2.74;82.34;98232.07;107935;1277;69880;-68
2021/11/19 02:10:38;;;;;;;33.80;18.30;;;;;;;2.75;82.31;98236.17;107962;1276;67693;-69
2021/11/19 02:13:26;;;;;;;36.10;20.00;;;;;;;2.73;82.23;98227.10;107965;1277;68563;-69
2021/11/19 02:16:05;;;;;;;24.60;15.20;;;;;;;2.73;81.95;98222.27;107991;1275;59757;-68
2021/11/19 02:19:02;;;;;;;25.80;14.20;;;;;;;2.74;81.95;98225.02;108014;1276;59774;-70
2021/11/19 02:21:58;;;;;;;30.40;18.70;;;;;;;2.74;81.67;98220.70;107830;1276;71408;-68
2021/11/19 02:24:46;;;;;;;32.20;19.40;;;;;;;2.74;81.55;98212.78;107830;1276;68625;-70
2021/11/19 02:27:32;;;;;;;38.50;21.40;;;;;;;2.74;81.49;98223.98;108055;1272;69407;-68
2021/11/19 02:30:10;;;;;;;38.70;22.00;;;;;;;2.75;81.54;98215.01;108001;1276;59798;-68
2021/11/19 02:32:57;;;;;;;43.70;24.90;;;;;;;2.75;81.48;98214.48;108033;1272;59726;-70
2021/11/19 02:35:39;;;;;;;35.80;20.90;;;;;;;2.74;81.38;98214.50;107979;1275;70503;-68
2021/11/19 02:38:20;;;;;;;46.90;26.30;;;;;;;2.75;81.26;98207.59;108042;1272;67748;-68
2021/11/19 02:40:52;;;;;;;38.90;22.90;;;;;;;2.76;81.05;98211.34;107981;1276;69440;-69
2021/11/19 02:43:43;;;;;;;43.50;23.90;;;;;;;2.77;81.05;98220.80;107952;1276;59735;-69
2021/11/19 02:46:24;;;;;;;33.50;18.90;;;;;;;2.76;81.45;98219.95;107926;1272;59773;-71
2021/11/19 02:48:53;;;;;;;31.10;18.90;;;;;;;2.77;81.49;98217.69;107989;1276;70648;-69
2021/11/19 02:51:27;;;;;;;29.80;17.70;;;;;;;2.77;81.33;98212.70;107998;1272;68710;-70
2021/11/19 02:53:57;;;;;;;29.60;18.20;;;;;;;2.79;81.18;98213.86;107988;1276;69430;-69
2021/11/19 02:56:29;;;;;;;27.40;15.50;;;;;;;2.78;81.07;98213.02;108012;1276;59777;-69
2021/11/19 02:59:01;;;;;;;31.50;18.20;;;;;;;2.79;81.37;98214.52;108040;1272;59735;-69
2021/11/19 03:01:36;;;;;;;31.10;16.90;;;;;;;2.81;81.74;98217.05;108024;1275;71550;-68
2021/11/19 03:04:15;;;;;;;30.20;16.40;;;;;;;2.82;81.39;98211.70;108090;1273;68576;-69
2021/11/19 03:06:48;;;;;;;29.70;16.90;;;;;;;2.82;81.28;98221.35;107947;1275;69773;-70
2021/11/19 03:09:24;;;;;;;41.20;25.20;;;;;;;2.82;81.24;98222.20;108014;1276;59710;-69
2021/11/19 03:11:56;;;;;;;31.30;17.40;;;;;;;2.80;81.03;98216.03;108035;1276;59725;-69
2021/11/19 03:14:26;;;;;;;29.10;17.90;;;;;;;2.81;81.08;98208.10;107984;1276;71391;-69
2021/11/19 03:16:57;;;;;;;41.00;23.10;;;;;;;2.81;80.76;98203.61;108033;1276;68608;-69
2021/11/19 03:19:28;;;;;;;42.50;23.60;;;;;;;2.81;80.57;98197.80;107986;1276;68252;-69
2021/11/19 03:21:59;;;;;;;39.20;22.70;;;;;;;2.78;80.58;98196.83;108026;1277;59786;-69
2021/11/19 03:24:30;;;;;;;48.70;27.50;;;;;;;2.75;80.91;98201.57;108022;1272;59917;-71
2021/11/19 03:27:00;;;;;;;46.60;27.00;;;;;;;2.72;81.03;98195.81;108010;1276;69602;-70
2021/11/19 03:29:31;;;;;;;48.60;27.40;;;;;;;2.66;81.39;98199.92;108053;1276;67645;-70
2021/11/19 03:32:02;;;;;;;48.50;25.70;;;;;;;2.63;81.86;98199.17;107940;1276;69504;-70
2021/11/19 03:34:32;;;;;;;48.70;26.00;;;;;;;2.54;82.12;98199.75;107979;1276;59787;-69
2021/11/19 03:37:02;;;;;;;54.80;30.40;;;;;;;2.49;82.32;98199.20;107998;1277;59636;-69
2021/11/19 03:39:34;;;;;;;64.30;32.60;;;;;;;2.45;82.42;98199.16;107948;1277;71559;-69
2021/11/19 03:42:05;;;;;;;54.50;31.30;;;;;;;2.42;82.54;98199.23;108010;1276;68096;-68
2021/11/19 03:44:42;;;;;;;59.30;32.80;;;;;;;2.40;82.96;98196.19;108016;1276;68440;-69
2021/11/19 03:47:17;;;;;;;59.00;32.30;;;;;;;2.39;82.83;98200.48;108021;1276;59755;-71
2021/11/19 03:49:50;;;;;;;63.20;34.30;;;;;;;2.40;82.59;98197.73;107994;1275;59736;-69
2021/11/19 03:52:24;;;;;;;54.70;30.80;;;;;;;2.39;82.69;98200.68;107983;1275;70414;-69
2021/11/19 03:54:58;;;;;;;46.40;28.30;;;;;;;2.39;83.16;98206.70;107815;1275;68427;-68
2021/11/19 03:57:29;;;;;;;52.30;31.80;;;;;;;2.43;82.79;98208.49;107931;1275;68629;-69
2021/11/19 04:00:12;;;;;;;60.20;34.30;;;;;;;2.44;82.82;98208.45;108032;1276;59730;-69
2021/11/19 04:02:48;;;;;;;53.20;29.90;;;;;;;2.45;82.74;98212.73;108015;1276;59701;-69
2021/11/19 04:05:18;;;;;;;57.90;30.60;;;;;;;2.46;82.83;98216.14;108094;1274;71002;-70
2021/11/19 04:07:52;;;;;;;58.00;30.00;;;;;;;2.45;83.08;98216.02;107949;1276;68683;-69
2021/11/19 04:10:27;;;;;;;39.30;19.20;;;;;;;2.42;83.13;98216.61;107769;1275;68404;-71
2021/11/19 04:12:57;;;;;;;40.10;23.10;;;;;;;2.44;83.21;98214.48;107932;1275;59732;-70
2021/11/19 04:15:47;;;;;;;32.20;18.80;;;;;;;2.47;83.26;98209.58;107978;1275;59713;-69
2021/11/19 04:18:18;;;;;;;25.30;13.90;;;;;;;2.50;83.25;98206.92;107969;1275;71607;-70
2021/11/19 04:20:51;;;;;;;21.50;13.10;;;;;;;2.53;83.26;98208.55;108048;1272;69050;-69
2021/11/19 04:23:24;;;;;;;32.60;18.90;;;;;;;2.56;83.30;98206.92;107985;1272;69223;-68
2021/11/19 04:25:56;;;;;;;46.30;25.50;;;;;;;2.58;82.57;98202.73;107813;1275;59850;-69
2021/11/19 04:28:26;;;;;;;50.40;26.40;;;;;;;2.55;82.93;98209.18;108025;1272;59679;-69
2021/11/19 04:31:29;;;;;;;48.90;27.80;;;;;;;2.53;82.91;98212.51;107961;1276;71614;-68
2021/11/19 04:34:06;;;;;;;50.30;26.90;;;;;;;2.52;83.05;98207.90;108007;1275;67930;-68
2021/11/19 04:36:37;;;;;;;31.90;17.60;;;;;;;2.50;82.87;98204.34;107957;1273;69504;-69
2021/11/19 04:39:08;;;;;;;40.70;20.60;;;;;;;2.51;82.68;98201.57;108002;1275;60190;-69
2021/11/19 04:41:40;;;;;;;65.60;35.00;;;;;;;2.51;82.70;98200.54;108036;1276;59773;-68
2021/11/19 04:44:10;;;;;;;72.10;36.70;;;;;;;2.49;82.89;98201.44;107955;1276;71126;-69
2021/11/19 04:46:44;;;;;;;47.00;25.50;;;;;;;2.44;83.13;98200.54;108022;1276;68620;-70
2021/11/19 04:49:14;;;;;;;44.60;24.40;;;;;;;2.44;83.40;98206.73;108001;1272;69477;-68
2021/11/19 04:51:46;;;;;;;31.80;17.90;;;;;;;2.47;83.41;98208.91;107891;1275;59788;-69
2021/11/19 04:54:18;;;;;;;35.10;21.50;;;;;;;2.49;83.53;98210.39;108015;1272;59714;-69
2021/11/19 04:56:51;;;;;;;32.40;19.20;;;;;;;2.53;83.34;98207.17;107802;1275;71604;-68
2021/11/19 04:59:24;;;;;;;40.20;23.90;;;;;;;2.55;83.23;98211.60;107899;1276;67444;-68
2021/11/19 05:01:59;;;;;;;33.30;19.10;;;;;;;2.56;83.50;98212.26;108020;1273;69424;-69
2021/11/19 05:04:53;;;;;;;48.60;25.10;;;;;;;2.60;83.54;98211.83;108059;1276;59737;-69
2021/11/19 05:07:23;;;;;;;26.90;15.80;;;;;;;2.60;83.27;98206.30;107975;1276;59752;-68
2021/11/19 05:09:55;;;;;;;44.80;23.30;;;;;;;2.63;83.39;98203.64;108069;1275;70703;-69
2021/11/19 05:12:52;;;;;;;47.90;26.50;;;;;;;2.63;83.21;98203.98;107918;1276;67892;-69
2021/11/19 05:15:24;;;;;;;31.10;17.50;;;;;;;2.60;83.40;98206.14;107936;1275;69342;-68
2021/11/19 05:17:54;;;;;;;40.60;23.70;;;;;;;2.62;83.45;98207.10;108000;1276;59699;-68
2021/11/19 05:20:25;;;;;;;54.70;29.10;;;;;;;2.64;83.17;98207.40;108074;1275;59757;-70
2021/11/19 05:22:55;;;;;;;54.80;28.90;;;;;;;2.64;83.03;98208.43;108059;1276;71358;-68
2021/11/19 05:25:32;;;;;;;59.60;30.00;;;;;;;2.66;83.11;98210.27;108118;1272;68085;-68
2021/11/19 05:28:02;;;;;;;48.70;28.70;;;;;;;2.63;83.26;98211.73;108001;1275;69786;-68
2021/11/19 05:30:31;;;;;;;46.60;24.20;;;;;;;2.60;83.65;98211.48;107871;1276;59768;-69
2021/11/19 05:33:06;;;;;;;38.60;20.60;;;;;;;2.59;83.72;98208.21;108106;1275;59671;-69
2021/11/19 05:35:37;;;;;;;56.30;29.40;;;;;;;2.58;83.78;98207.71;107789;1275;70956;-68
2021/11/19 05:38:07;;;;;;;56.90;30.30;;;;;;;2.59;83.88;98206.66;108071;1276;68635;-69
2021/11/19 05:40:37;;;;;;;51.90;28.50;;;;;;;2.61;83.68;98215.23;108021;1273;68921;-69
2021/11/19 05:43:06;;;;;;;48.70;27.40;;;;;;;2.60;83.72;98212.48;107854;1275;59796;-69
2021/11/19 05:45:56;;;;;;;52.20;29.10;;;;;;;2.61;83.72;98214.17;108097;1273;59767;-70
2021/11/19 05:48:47;;;;;;;36.10;21.20;;;;;;;2.63;83.63;98210.51;108052;1272;71880;-69
2021/11/19 05:51:17;;;;;;;36.10;20.20;;;;;;;2.65;83.80;98213.75;108063;1275;67955;-68
2021/11/19 05:53:49;;;;;;;26.30;14.50;;;;;;;2.68;83.69;98213.13;108040;1275;69527;-69
2021/11/19 05:56:22;;;;;;;27.00;17.00;;;;;;;2.72;83.46;98216.45;107824;1276;59842;-68
2021/11/19 05:59:06;;;;;;;28.90;17.30;;;;;;;2.75;83.65;98216.52;107911;1276;59661;-68
2021/11/19 06:01:54;;;;;;;31.60;16.10;;;;;;;2.79;83.70;98218.13;108003;1276;71886;-70
2021/11/19 06:04:32;;;;;;;34.30;18.90;;;;;;;2.82;83.81;98217.91;107983;1275;67834;-68
2021/11/19 06:07:22;;;;;;;39.30;21.50;;;;;;;2.84;83.27;98212.33;108067;1272;68306;-68
2021/11/19 06:09:55;;;;;;;54.40;28.80;;;;;;;2.86;83.00;98216.91;108048;1276;59860;-69
2021/11/19 06:12:34;;;;;;;62.00;30.90;;;;;;;2.87;82.90;98208.48;108074;1272;59620;-69
2021/11/19 06:15:10;;;;;;;;;;;;;;;2.83;83.05;98205.96;107553;1272;674680;-68
2021/11/19 06:17:42;;;;;;;59.90;32.60;;;;;;;2.80;83.24;98199.34;107976;1276;69143;-68
2021/11/19 06:20:22;;;;;;;57.10;32.20;;;;;;;2.80;83.36;98201.41;108011;1275;69417;-68
2021/11/19 06:23:02;;;;;;;61.30;33.20;;;;;;;2.79;83.71;98196.45;107997;1272;59757;-67
2021/11/19 06:25:37;;;;;;;71.10;36.10;;;;;;;2.81;84.04;98194.67;107990;1275;59778;-69
2021/11/19 06:28:13;;;;;;;65.00;31.80;;;;;;;2.82;83.91;98192.06;107945;1275;71586;-68
2021/11/19 06:30:43;;;;;;;75.20;37.50;;;;;;;2.77;84.33;98194.09;107792;1276;67889;-68
2021/11/19 06:33:12;;;;;;;73.80;35.50;;;;;;;2.80;84.20;98201.77;107926;1272;69489;-67
2021/11/19 06:35:41;;;;;;;70.20;34.70;;;;;;;2.78;84.40;98208.01;108109;1272;59795;-68
2021/11/19 06:38:13;;;;;;;64.70;30.80;;;;;;;2.77;84.54;98206.85;107981;1275;59770;-69
2021/11/19 06:40:53;;;;;;;77.30;38.90;;;;;;;2.81;84.31;98203.46;108110;1272;71593;-69
2021/11/19 06:43:42;;;;;;;60.40;30.80;;;;;;;2.81;84.43;98208.09;107961;1276;68603;-68
2021/11/19 06:46:35;;;;;;;58.30;25.50;;;;;;;2.86;84.29;98219.83;107831;1275;68520;-69
2021/11/19 06:49:23;;;;;;;59.00;28.10;;;;;;;2.86;83.96;98223.63;107918;1272;59777;-69
2021/11/19 06:52:25;;;;;;;62.50;29.50;;;;;;;2.88;83.77;98222.04;107808;1275;59696;-68
2021/11/19 06:55:27;;;;;;;55.90;25.80;;;;;;;2.91;83.71;98218.33;107854;1272;70811;-69
2021/11/19 06:58:11;;;;;;;65.70;32.10;;;;;;;2.92;83.80;98205.90;108053;1272;68557;-69
2021/11/19 07:00:44;;;;;;;54.60;29.70;;;;;;;2.97;83.55;98197.31;107968;1275;69195;-69
2021/11/19 07:03:14;;;;;;;56.60;28.30;;;;;;;2.96;83.21;98198.70;107928;1275;59720;-69
2021/11/19 07:05:44;;;;;;;43.30;20.80;;;;;;;2.93;83.19;98203.63;108061;1272;59723;-70
2021/11/19 07:08:18;;;;;;;44.40;21.70;;;;;;;2.92;82.95;98202.45;107912;1275;72125;-68
2021/11/19 07:10:52;;;;;;;47.80;24.20;;;;;;;2.90;83.00;98206.14;107987;1275;67920;-68
2021/11/19 07:13:23;;;;;;;48.60;23.60;;;;;;;2.89;83.11;98206.52;107987;1276;69496;-68
2021/11/19 07:15:52;;;;;;;48.60;23.90;;;;;;;2.87;83.20;98196.76;107848;1276;59743;-69
2021/11/19 07:18:30;;;;;;;44.20;23.90;;;;;;;2.85;83.31;98198.35;107780;1275;59725;-70
2021/11/19 07:21:00;;;;;;;37.70;18.80;;;;;;;2.79;83.30;98202.31;107725;1277;71817;-69
2021/11/19 07:23:31;;;;;;;38.80;19.40;;;;;;;2.75;83.39;98197.79;108000;1273;68377;-68
2021/11/19 07:26:00;;;;;;;42.40;20.80;;;;;;;2.79;83.40;98197.33;107928;1276;69483;-67
2021/11/19 07:28:29;;;;;;;39.00;22.10;;;;;;;2.85;83.32;98198.36;107988;1272;59706;-67
2021/11/19 07:31:24;;;;;;;46.20;25.00;;;;;;;2.88;83.18;98184.50;107870;1276;59780;-69
2021/11/19 07:34:19;;;;;;;;;;;;;;;2.88;83.15;98185.37;107898;1273;71586;-68
2021/11/19 07:36:57;;;;;;;44.20;24.40;;;;;;;2.89;83.13;98190.30;108045;1272;67921;-68
2021/11/19 07:39:43;;;;;;;35.70;17.70;;;;;;;2.88;83.09;98191.55;107987;1276;69427;-69
2021/11/19 07:42:40;;;;;;;27.60;15.80;;;;;;;2.87;83.34;98191.77;107945;1271;59693;-68
2021/11/19 07:45:14;;;;;;;41.50;22.40;;;;;;;2.93;83.12;98186.59;107974;1273;59770;-68
2021/11/19 07:47:52;;;;;;;36.90;20.90;;;;;;;2.99;82.69;98185.53;108083;1272;70799;-68
2021/11/19 07:50:26;;;;;;;34.80;18.10;;;;;;;2.96;82.62;98182.36;107857;1274;67900;-68
2021/11/19 07:53:02;;;;;;;36.10;21.00;;;;;;;2.95;82.71;98175.99;107861;1274;67686;-67
2021/11/19 07:55:33;;;;;;;39.20;23.20;;;;;;;2.98;82.73;98171.63;107931;1274;59746;-67
2021/11/19 07:58:04;;;;;;;34.30;19.70;;;;;;;3.01;82.79;98166.87;107877;1275;59665;-68
2021/11/19 08:00:36;;;;;;;31.20;19.00;;;;;;;3.00;82.57;98168.61;107873;1276;71522;-68
2021/11/19 08:03:07;;;;;;;34.50;19.20;;;;;;;3.05;82.57;98169.17;108024;1275;67897;-68
2021/11/19 08:05:37;;;;;;;26.70;18.00;;;;;;;3.11;82.55;98170.71;107938;1272;69448;-69
2021/11/19 08:08:14;;;;;;;33.60;19.60;;;;;;;3.17;82.45;98167.42;108064;1271;59705;-69
2021/11/19 08:11:10;;;;;;;30.20;19.70;;;;;;;3.22;82.18;98168.46;107987;1274;59761;-68
2021/11/19 08:13:40;;;;;;;27.30;18.00;;;;;;;3.28;82.08;98161.92;107927;1271;71819;-68
2021/11/19 08:16:10;;;;;;;30.30;17.90;;;;;;;3.35;81.72;98162.04;108019;1275;67901;-68
2021/11/19 08:19:00;;;;;;;24.90;14.60;;;;;;;3.40;81.75;98159.81;107994;1272;69726;-69
2021/11/19 08:21:31;;;;;;;29.70;17.90;;;;;;;3.47;81.70;98165.96;108054;1271;59761;-68
2021/11/19 08:24:07;;;;;;;22.50;15.10;;;;;;;3.53;81.14;98171.45;107878;1273;59741;-69
2021/11/19 08:26:43;;;;;;;27.90;18.30;;;;;;;3.53;80.90;98175.58;108013;1275;72148;-69
2021/11/19 08:29:17;;;;;;;27.10;16.80;;;;;;;3.55;80.59;98178.78;107984;1276;67884;-69
2021/11/19 08:31:47;;;;;;;26.20;16.90;;;;;;;3.54;80.62;98182.27;107962;1275;68681;-68
2021/11/19 08:34:17;;;;;;;26.90;15.00;;;;;;;3.56;80.56;98182.73;108044;1271;59812;-69
2021/11/19 08:36:47;;;;;;;23.60;16.10;;;;;;;3.62;80.41;98179.11;108040;1271;59687;-68
2021/11/19 08:39:18;;;;;;;19.90;12.70;;;;;;;3.64;80.30;98171.95;108057;1272;70008;-69
2021/11/19 08:41:49;;;;;;;26.90;17.40;;;;;;;3.67;80.23;98166.16;108030;1275;68706;-69
2021/11/19 08:44:21;;;;;;;25.80;16.00;;;;;;;3.72;80.25;98162.55;107956;1275;68636;-68
2021/11/19 08:47:10;;;;;;;;;;;;;;;3.71;79.83;98158.78;107953;1276;59718;-68
2021/11/19 08:49:40;;;;;;;22.90;12.70;;;;;;;3.73;79.82;98153.89;107999;1272;59748;-69
2021/11/19 08:52:12;;;;;;;25.60;16.90;;;;;;;3.78;79.74;98151.48;107999;1271;71790;-68
2021/11/19 08:54:41;;;;;;;24.60;14.60;;;;;;;3.91;79.38;98155.20;108053;1272;67786;-69
2021/11/19 08:57:14;;;;;;;21.80;14.40;;;;;;;4.01;78.93;98160.34;107948;1275;69511;-69
2021/11/19 08:59:47;;;;;;;23.50;15.20;;;;;;;4.07;78.87;98168.09;108003;1273;59767;-69
2021/11/19 09:02:20;;;;;;;20.50;13.70;;;;;;;4.14;78.63;98167.87;108087;1272;59764;-67
2021/11/19 09:05:07;;;;;;;24.70;15.60;;;;;;;4.20;78.26;98161.92;107967;1272;71385;-68
2021/11/19 09:07:37;;;;;;;24.70;17.50;;;;;;;4.26;78.22;98161.73;108013;1275;68491;-68
2021/11/19 09:10:11;;;;;;;24.80;15.90;;;;;;;4.37;77.92;98160.83;108073;1276;69245;-68
2021/11/19 09:12:41;;;;;;;17.50;11.20;;;;;;;4.45;78.02;98157.92;108060;1272;59684;-68
2021/11/19 09:15:15;;;;;;;23.90;15.30;;;;;;;4.62;77.77;98157.49;108053;1273;59698;-68
2021/11/19 09:17:49;;;;;;;16.50;10.10;;;;;;;4.79;77.57;98148.23;108007;1268;70141;-67
2021/11/19 09:20:22;;;;;;;21.90;15.60;;;;;;;5.00;77.13;98145.34;107986;1275;68617;-66
2021/11/19 09:23:03;;;;;;;25.40;16.20;;;;;;;5.15;75.80;98139.77;107994;1273;69494;-67
2021/11/19 09:25:34;;;;;;;22.40;16.50;;;;;;;5.24;75.08;98134.90;107913;1272;59789;-67
2021/11/19 09:28:05;;;;;;;20.70;13.60;;;;;;;5.35;74.38;98129.27;108020;1272;60080;-69
2021/11/19 09:30:38;;;;;;;20.60;13.80;;;;;;;5.42;74.32;98123.80;107988;1275;70723;-68
2021/11/19 09:33:12;;;;;;;23.80;16.50;;;;;;;5.64;73.56;98122.21;107963;1272;68615;-68
2021/11/19 09:35:41;;;;;;;23.20;16.40;;;;;;;5.73;73.10;98116.66;107973;1272;69272;-68
2021/11/19 09:38:13;;;;;;;24.60;16.10;;;;;;;5.74;72.61;98119.03;107967;1274;59760;-68
2021/11/19 09:41:12;;;;;;;21.40;14.80;;;;;;;5.71;72.59;98114.13;107987;1272;59785;-68
2021/11/19 09:44:19;;;;;;;22.50;14.90;;;;;;;5.80;72.71;98109.59;107994;1272;71803;-68
2021/11/19 09:47:09;;;;;;;22.80;16.80;;;;;;;5.90;72.26;98108.48;107713;1277;68745;-69
2021/11/19 09:49:49;;;;;;;18.40;13.20;;;;;;;5.98;71.58;98100.91;107654;1277;69477;-68
2021/11/19 09:52:59;;;;;;;26.30;17.10;;;;;;;6.03;71.10;98098.09;107672;1278;59769;-68
2021/11/19 09:56:06;;;;;;;22.00;14.30;;;;;;;6.04;71.06;98095.95;107623;1278;59787;-69
2021/11/19 09:58:51;;;;;;;17.00;11.90;;;;;;;6.11;71.40;98089.61;107326;1281;71589;-69
2021/11/19 10:01:39;;;;;;;18.40;12.60;;;;;;;6.26;70.97;98083.06;107411;1281;68009;-69
2021/11/19 10:04:43;;;;;;;14.80;10.40;;;;;;;6.44;70.82;98081.38;107686;1278;68694;-69
2021/11/19 10:07:33;;;;;;;18.70;12.50;;;;;;;6.77;69.88;98077.59;107649;1278;59809;-67
2021/11/19 10:10:26;;;;;;;20.50;14.80;;;;;;;7.13;68.61;98072.77;107661;1276;59780;-67
2021/11/19 10:13:03;;;;;;;19.10;13.40;;;;;;;7.20;67.36;98068.13;107531;1279;69932;-67
2021/11/19 10:15:42;;;;;;;20.80;14.90;;;;;;;7.19;68.21;98065.38;107688;1278;68272;-67
2021/11/19 10:18:21;;;;;;;19.30;12.50;;;;;;;7.03;67.95;98062.66;107691;1278;67519;-67
2021/11/19 10:21:03;;;;;;;16.80;12.30;;;;;;;7.00;68.53;98054.66;107663;1278;59735;-66
2021/11/19 10:23:57;;;;;;;17.50;12.30;;;;;;;7.02;68.69;98048.16;108024;1272;59752;-67
2021/11/19 10:26:33;;;;;;;19.00;13.00;;;;;;;6.97;67.17;98040.77;107996;1273;71552;-67
2021/11/19 10:29:09;;;;;;;20.30;14.00;;;;;;;7.01;67.62;98035.73;107943;1272;68610;-67
2021/11/19 10:31:38;;;;;;;16.40;12.40;;;;;;;7.13;67.53;98028.42;108084;1272;68581;-66
2021/11/19 10:34:45;;;;;;;23.30;16.00;;;;;;;7.30;67.11;98023.94;108007;1272;59706;-67
2021/11/19 10:37:27;;;;;;;24.10;18.30;;;;;;;7.49;66.47;98018.09;108001;1272;59679;-66
2021/11/19 10:40:29;;;;;;;28.60;18.90;;;;;;;7.50;65.54;98015.95;107963;1275;71456;-67
2021/11/19 10:43:34;;;;;;;19.00;14.40;;;;;;;7.41;65.86;98012.44;107958;1272;67942;-67
2021/11/19 10:46:21;;;;;;;22.60;16.70;;;;;;;7.47;65.76;98015.08;108034;1274;68451;-67
2021/11/19 10:49:27;;;;;;;22.00;15.50;;;;;;;7.32;65.25;98009.27;108104;1271;59742;-67
2021/11/19 10:52:06;;;;;;;19.10;13.80;;;;;;;7.05;66.18;98013.70;108064;1272;59723;-67
2021/11/19 10:55:09;;;;;;;17.70;11.40;;;;;;;7.05;66.63;98008.86;107933;1273;70899;-67
2021/11/19 10:57:57;;;;;;;20.70;15.00;;;;;;;7.07;66.54;98014.27;108067;1272;68703;-67
2021/11/19 11:00:53;;;;;;;21.00;14.40;;;;;;;6.86;66.32;98013.09;108000;1272;69349;-67
2021/11/19 11:03:27;;;;;;;17.90;12.40;;;;;;;6.71;67.04;98006.70;107989;1272;59797;-67
2021/11/19 11:06:00;;;;;;;16.90;11.90;;;;;;;6.64;67.46;98004.93;108048;1275;59755;-66
2021/11/19 11:08:36;;;;;;;16.90;11.10;;;;;;;6.59;67.32;98006.53;107996;1272;70585;-65
2021/11/19 11:11:31;;;;;;;16.80;12.30;;;;;;;6.59;67.47;98002.77;108011;1272;68902;-65
2021/11/19 11:14:04;;;;;;;16.10;11.30;;;;;;;6.52;67.49;98007.07;108108;1272;69496;-66
2021/11/19 11:16:40;;;;;;;16.80;11.70;;;;;;;6.46;67.95;98004.05;107995;1272;59786;-65
2021/11/19 11:19:09;;;;;;;18.30;12.80;;;;;;;6.50;68.32;98008.73;107998;1272;59671;-67
2021/11/19 11:21:49;;;;;;;17.70;11.70;;;;;;;6.54;68.47;98014.23;108012;1274;71512;-68
2021/11/19 11:24:32;;;;;;;22.60;15.90;;;;;;;6.58;68.56;98010.56;108005;1274;66804;-66
2021/11/19 11:27:10;;;;;;;17.90;12.70;;;;;;;6.51;67.88;98010.23;108044;1272;69516;-66
2021/11/19 11:30:02;;;;;;;21.40;14.00;;;;;;;6.44;67.95;98007.09;108011;1271;59703;-66
2021/11/19 11:32:49;;;;;;;19.40;12.90;;;;;;;6.37;68.45;98008.79;108045;1272;59677;-67
2021/11/19 11:36:11;;;;;;;16.60;10.70;;;;;;;6.41;68.63;98009.16;108045;1272;71487;-65
2021/11/19 11:39:10;;;;;;;13.70;10.10;;;;;;;6.44;69.19;98018.38;107481;1280;67957;-65
2021/11/19 11:41:48;;;;;;;15.40;11.10;;;;;;;6.45;69.29;98015.71;107625;1278;69520;-65
2021/11/19 11:44:21;;;;;;;14.70;10.50;;;;;;;6.46;69.06;98015.13;107632;1278;59751;-65
2021/11/19 11:47:05;;;;;;;11.30;8.20;;;;;;;6.48;69.38;98014.20;107715;1278;59863;-65
2021/11/19 11:49:49;;;;;;;15.90;10.10;;;;;;;6.48;69.46;98015.94;107591;1278;70713;-65
2021/11/19 11:52:48;;;;;;;11.30;8.70;;;;;;;6.45;69.76;98013.80;107394;1279;68546;-66
2021/11/19 11:55:30;;;;;;;19.90;11.00;;;;;;;6.42;70.99;98012.21;107502;1278;68589;-65
2021/11/19 11:58:06;;;;;;;17.60;12.20;;;;;;;6.35;71.95;98013.25;107627;1279;59806;-65
2021/11/19 12:00:57;;;;;;;17.50;13.00;;;;;;;6.23;73.02;98016.21;107596;1278;59712;-65
2021/11/19 12:03:48;;;;;;;21.40;15.10;;;;;;;6.10;73.62;98014.02;107640;1279;70842;-65
2021/11/19 12:06:35;;;;;;;23.50;15.40;;;;;;;5.98;73.03;98009.20;107606;1278;68676;-65